createdAt,value
2023-05-19T00:00:09.482Z,7.97
2023-05-19T00:02:39.744Z,5.63
2023-05-19T00:05:10.395Z,7.47
2023-05-19T00:07:40.735Z,7.37
2023-05-19T00:10:10.269Z,5.87
2023-05-19T00:12:39.646Z,5.10
2023-05-19T00:15:10.590Z,6.27
2023-05-19T00:17:39.024Z,12.43
2023-05-19T00:20:08.487Z,8.07
2023-05-19T00:22:37.078Z,13.47
2023-05-19T00:25:07.806Z,7.87
2023-05-19T00:27:35.953Z,5.40
2023-05-19T00:30:04.127Z,5.60
2023-05-19T00:32:32.325Z,11.17
2023-05-19T00:35:00.992Z,9.13
2023-05-19T00:37:29.146Z,9.80
2023-05-19T00:39:58.144Z,5.87
2023-05-19T00:42:27.783Z,10.47
2023-05-19T00:44:56.102Z,6.87
2023-05-19T00:47:24.314Z,6.13
2023-05-19T00:49:52.436Z,8.27
2023-05-19T00:52:20.725Z,8.10
2023-05-19T00:54:50.089Z,5.97
2023-05-19T01:12:43.600Z,9.53
2023-05-19T01:15:12.987Z,6.60
2023-05-19T01:17:46.988Z,9.23
2023-05-19T01:20:21.979Z,8.33
2023-05-19T01:23:16.833Z,6.37
2023-05-19T01:26:03.174Z,6.93
2023-05-19T01:29:07.213Z,12.00
2023-05-19T01:31:38.699Z,8.70
2023-05-19T01:34:08.824Z,9.67
2023-05-19T01:36:38.211Z,9.73
2023-05-19T01:39:07.228Z,8.50
2023-05-19T01:41:36.022Z,6.67
2023-05-19T01:44:04.432Z,7.43
2023-05-19T01:46:32.622Z,9.27
2023-05-19T01:49:02.970Z,10.13
2023-05-19T01:51:31.488Z,10.80
2023-05-19T01:53:59.914Z,9.27
2023-05-19T01:56:38.940Z,11.93
2023-05-19T01:59:20.988Z,9.07
2023-05-19T02:01:54.318Z,8.17
2023-05-19T02:04:39.912Z,10.90
2023-05-19T02:07:14.678Z,10.50
2023-05-19T02:09:52.684Z,9.40
2023-05-19T02:12:26.932Z,11.30
2023-05-19T02:15:04.323Z,9.33
2023-05-19T02:17:36.271Z,11.47
2023-05-19T02:20:07.032Z,11.93
2023-05-19T02:22:35.166Z,12.07
2023-05-19T02:25:03.516Z,10.93
2023-05-19T02:27:31.631Z,8.43
2023-05-19T02:29:59.757Z,7.60
2023-05-19T02:32:28.005Z,8.60
2023-05-19T02:34:56.625Z,12.03
2023-05-19T02:37:28.676Z,9.53
2023-05-19T02:39:56.905Z,11.57
2023-05-19T02:42:25.090Z,14.87
2023-05-19T02:44:54.217Z,7.40
2023-05-19T02:47:22.416Z,7.63
2023-05-19T02:49:50.550Z,8.97
2023-05-19T03:05:54.361Z,10.20
2023-05-19T03:08:23.821Z,14.13
2023-05-19T03:10:51.919Z,12.73
2023-05-19T03:13:20.102Z,10.30
2023-05-19T03:15:48.943Z,10.57
2023-05-19T03:26:29.395Z,10.33
2023-05-19T03:28:57.539Z,12.47
2023-05-19T03:31:26.836Z,11.07
2023-05-19T03:33:54.979Z,11.90
2023-05-19T03:36:23.159Z,12.77
2023-05-19T03:38:51.307Z,10.23
2023-05-19T03:41:19.454Z,12.10
2023-05-19T03:43:48.957Z,12.13
2023-05-19T03:46:17.117Z,12.93
2023-05-19T03:48:45.263Z,11.80
2023-05-19T03:51:13.575Z,12.60
2023-05-19T03:53:42.515Z,8.30
2023-05-19T03:56:13.682Z,12.43
2023-05-19T03:58:43.534Z,15.77
2023-05-19T04:01:13.347Z,11.10
2023-05-19T04:11:43.010Z,9.43
2023-05-19T04:14:11.249Z,10.87
2023-05-19T04:16:41.749Z,11.27
2023-05-19T04:19:09.858Z,11.93
2023-05-19T04:21:37.996Z,13.47
2023-05-19T04:24:06.957Z,12.10
2023-05-19T04:26:36.027Z,12.53
2023-05-19T04:29:04.937Z,10.10
2023-05-19T04:31:34.497Z,13.23
2023-05-19T04:34:04.134Z,12.43
2023-05-19T04:36:34.084Z,13.47
2023-05-19T04:39:07.229Z,9.87
2023-05-19T04:41:35.547Z,14.90
2023-05-19T04:44:03.987Z,13.67
2023-05-19T04:46:32.309Z,10.83
2023-05-19T04:49:01.306Z,12.17
2023-05-19T04:51:31.408Z,12.23
2023-05-19T04:54:00.075Z,16.30
2023-05-19T04:56:28.962Z,13.57
2023-05-19T04:58:57.199Z,17.63
2023-05-19T05:01:26.255Z,12.40
2023-05-19T05:03:56.230Z,9.53
2023-05-19T05:06:24.396Z,11.93
2023-05-19T05:08:54.312Z,10.53
2023-05-19T05:11:22.891Z,11.20
2023-05-19T05:13:51.663Z,13.40
2023-05-19T05:20:32.918Z,14.20
2023-05-19T05:23:02.232Z,8.77
2023-05-19T05:25:32.651Z,10.07
2023-05-19T05:28:05.023Z,11.00
2023-05-19T05:30:34.828Z,11.37
2023-05-19T05:33:03.775Z,8.87
2023-05-19T05:35:32.319Z,9.80
2023-05-19T05:38:01.649Z,10.43
2023-05-19T05:40:31.271Z,8.97
2023-05-19T05:43:00.028Z,8.40
2023-05-19T05:45:28.270Z,12.67
2023-05-19T05:47:57.026Z,9.00
2023-05-19T05:50:25.700Z,10.93
2023-05-19T05:52:56.508Z,10.93
2023-05-19T05:55:25.524Z,11.50
2023-05-19T05:57:56.938Z,11.50
2023-05-19T06:00:27.949Z,13.03
2023-05-19T06:02:57.246Z,10.83
2023-05-19T06:05:25.941Z,9.60
2023-05-19T06:07:54.115Z,5.47
2023-05-19T06:10:22.376Z,6.57
2023-05-19T06:12:50.570Z,5.30
2023-05-19T06:15:20.099Z,7.57
2023-05-19T06:17:48.277Z,11.07
2023-05-19T06:20:16.472Z,8.70
2023-05-19T06:22:44.612Z,6.67
2023-05-19T06:25:12.712Z,10.23
2023-05-19T06:27:40.810Z,7.32
2023-05-19T06:30:10.126Z,8.63
2023-05-19T06:32:39.640Z,7.43
2023-05-19T06:35:08.234Z,8.27
2023-05-19T06:37:36.629Z,5.15
2023-05-19T06:40:05.745Z,7.97
2023-05-19T06:42:33.858Z,6.25
2023-05-19T06:45:01.991Z,6.07
2023-05-19T06:47:30.135Z,7.20
2023-05-19T06:49:59.615Z,9.02
2023-05-19T06:52:27.732Z,7.15
2023-05-19T06:54:55.948Z,6.10
2023-05-19T06:57:24.113Z,7.57
2023-05-19T06:59:52.202Z,3.50
2023-05-19T07:02:20.384Z,8.35
2023-05-19T07:04:48.545Z,4.15
2023-05-19T07:07:18.046Z,4.80
2023-05-19T07:09:46.253Z,8.00
2023-05-19T07:12:14.458Z,5.63
2023-05-19T07:14:42.634Z,5.35
2023-05-19T07:17:10.780Z,6.95
2023-05-19T07:19:38.969Z,4.53
2023-05-19T07:22:07.098Z,6.70
2023-05-19T07:24:36.675Z,7.60
2023-05-19T07:27:05.085Z,7.95
2023-05-19T07:29:33.204Z,8.25
2023-05-19T07:32:01.425Z,8.30
2023-05-19T07:34:29.580Z,5.63
2023-05-19T07:36:57.706Z,5.38
2023-05-19T07:39:29.539Z,7.78
2023-05-19T07:41:59.407Z,6.60
2023-05-19T07:44:28.146Z,6.25
2023-05-19T07:46:56.280Z,7.97
2023-05-19T07:49:24.597Z,6.05
2023-05-19T07:51:52.845Z,5.38
2023-05-19T07:54:21.365Z,3.80
2023-05-19T07:56:49.577Z,6.82
2023-05-19T08:10:42.011Z,5.10
2023-05-19T08:13:10.242Z,4.57
2023-05-19T08:15:38.571Z,6.13
2023-05-19T08:18:06.796Z,6.35
2023-05-19T08:20:35.227Z,7.03
2023-05-19T08:23:03.743Z,6.25
2023-05-19T08:25:32.168Z,4.47
2023-05-19T08:28:01.671Z,7.07
2023-05-19T08:30:29.858Z,5.68
2023-05-19T08:32:58.114Z,8.35
2023-05-19T08:35:26.479Z,7.88
2023-05-19T08:37:54.640Z,5.80
2023-05-19T08:40:23.949Z,6.43
2023-05-19T08:42:52.178Z,8.77
2023-05-19T08:45:21.684Z,6.05
2023-05-19T08:47:52.232Z,8.00
2023-05-19T08:50:27.639Z,5.57
2023-05-19T08:53:02.985Z,4.80
2023-05-19T08:55:38.236Z,5.05
2023-05-19T08:58:06.947Z,4.57
2023-05-19T09:00:37.074Z,7.03
2023-05-19T09:03:17.586Z,8.68
2023-05-19T09:05:47.112Z,5.90
2023-05-19T09:08:16.111Z,6.95
2023-05-19T09:10:44.248Z,5.18
2023-05-19T09:13:12.373Z,4.47
2023-05-19T09:15:43.578Z,4.97
2023-05-19T09:18:15.075Z,5.50
2023-05-19T09:20:44.837Z,3.80
2023-05-19T09:23:17.855Z,4.90
2023-05-19T09:25:49.668Z,5.20
2023-05-19T09:28:25.385Z,5.68
2023-05-19T09:31:02.397Z,5.22
2023-05-19T09:33:31.144Z,4.53
2023-05-19T09:35:59.445Z,4.85
2023-05-19T09:38:28.081Z,10.27
2023-05-19T09:40:58.452Z,5.53
2023-05-19T09:43:29.226Z,2.45
2023-05-19T09:46:02.302Z,5.88
2023-05-19T09:48:30.503Z,3.97
2023-05-19T09:50:59.126Z,6.82
2023-05-19T09:53:27.553Z,4.85
2023-05-19T09:55:58.695Z,4.35
2023-05-19T09:58:27.987Z,3.78
2023-05-19T10:00:57.378Z,4.28
2023-05-19T10:03:27.386Z,5.13
2023-05-19T10:05:55.852Z,6.03
2023-05-19T10:08:26.679Z,5.63
2023-05-19T10:10:55.064Z,4.65
2023-05-19T10:13:23.832Z,3.97
2023-05-19T10:15:58.610Z,4.15
2023-05-19T10:18:29.855Z,3.67
2023-05-19T10:20:59.510Z,4.20
2023-05-19T10:23:27.912Z,4.97
2023-05-19T10:26:00.971Z,3.60
2023-05-19T10:28:38.075Z,4.35
2023-05-19T10:31:10.860Z,3.70
2023-05-19T10:33:57.975Z,5.15
2023-05-19T10:36:45.745Z,5.32
2023-05-19T10:39:19.010Z,4.13
2023-05-19T10:41:54.952Z,2.78
2023-05-19T10:44:36.162Z,4.55
2023-05-19T10:47:07.277Z,6.03
2023-05-19T10:49:37.796Z,3.15
2023-05-19T10:52:20.029Z,4.10
2023-05-19T10:54:48.132Z,4.20
2023-05-19T10:57:17.446Z,5.35
2023-05-19T10:59:46.012Z,4.07
2023-05-19T11:02:38.596Z,3.65
2023-05-19T11:05:10.902Z,5.72
2023-05-19T11:07:42.410Z,5.90
2023-05-19T11:10:11.286Z,3.13
2023-05-19T11:12:43.870Z,4.65
2023-05-19T11:15:13.531Z,5.75
2023-05-19T11:17:42.944Z,4.75
2023-05-19T11:20:23.498Z,4.78
2023-05-19T11:23:08.892Z,2.78
2023-05-19T11:25:48.235Z,4.05
2023-05-19T11:28:19.460Z,4.40
2023-05-19T11:30:50.629Z,5.88
2023-05-19T11:33:20.470Z,4.88
2023-05-19T11:35:51.923Z,5.32
2023-05-19T11:38:20.278Z,3.95
2023-05-19T11:40:50.018Z,3.90
2023-05-19T11:43:18.144Z,4.68
2023-05-19T11:45:46.978Z,5.10
2023-05-19T11:48:15.980Z,4.97
2023-05-19T11:50:44.944Z,4.78
2023-05-19T11:53:16.382Z,4.82
2023-05-19T11:55:47.699Z,5.15
2023-05-19T11:58:16.956Z,5.22
2023-05-19T12:00:47.943Z,4.88
2023-05-19T12:03:17.435Z,7.30
2023-05-19T12:05:47.713Z,4.93
2023-05-19T12:08:18.528Z,4.38
2023-05-19T12:10:50.452Z,3.08
2023-05-19T12:13:18.680Z,3.97
2023-05-19T12:15:47.000Z,5.88
2023-05-19T12:18:15.280Z,5.28
2023-05-19T12:20:44.294Z,3.45
2023-05-19T12:23:13.148Z,5.53
2023-05-19T12:25:42.830Z,5.97
2023-05-19T12:28:11.583Z,5.60
2023-05-19T12:30:39.737Z,3.65
2023-05-19T12:33:09.713Z,4.50
2023-05-19T12:35:39.089Z,7.18
2023-05-19T12:38:08.202Z,4.47
2023-05-19T12:40:37.703Z,4.68
2023-05-19T12:43:09.654Z,8.32
2023-05-19T12:45:38.850Z,5.50
2023-05-19T12:48:12.367Z,5.88
2023-05-19T12:50:40.869Z,3.80
2023-05-19T12:53:12.255Z,4.28
2023-05-19T12:55:44.316Z,5.05
2023-05-19T12:58:14.579Z,3.92
2023-05-19T13:00:44.893Z,3.42
2023-05-19T13:03:17.603Z,6.63
2023-05-19T13:05:47.349Z,2.78
2023-05-19T13:08:16.892Z,4.70
2023-05-19T13:10:45.986Z,5.13
2023-05-19T13:13:15.767Z,5.78
2023-05-19T13:15:45.419Z,4.10
2023-05-19T13:18:14.811Z,4.05
2023-05-19T13:20:45.074Z,4.72
2023-05-19T13:23:14.074Z,4.63
2023-05-19T13:25:42.703Z,3.78
2023-05-19T13:28:11.216Z,3.92
2023-05-19T13:30:42.166Z,5.50
2023-05-19T13:33:11.499Z,6.38
2023-05-19T13:35:39.677Z,3.42
2023-05-19T13:38:09.862Z,6.80
2023-05-19T13:40:38.619Z,6.45
2023-05-19T13:43:07.441Z,4.55
2023-05-19T13:45:35.604Z,4.60
2023-05-19T13:48:07.369Z,3.38
2023-05-19T13:50:35.774Z,5.55
2023-05-19T13:53:04.056Z,7.43
2023-05-19T13:55:32.216Z,3.60
2023-05-19T13:58:00.370Z,5.15
2023-05-19T14:00:28.576Z,5.35
2023-05-19T14:02:56.862Z,4.47
2023-05-19T14:05:28.348Z,4.95
2023-05-19T14:07:56.680Z,3.70
2023-05-19T14:10:24.943Z,8.65
2023-05-19T14:15:26.884Z,3.78
2023-05-19T14:17:55.080Z,4.57
2023-05-19T14:20:23.410Z,4.57
2023-05-19T14:22:52.939Z,3.50
2023-05-19T14:25:21.091Z,6.78
2023-05-19T14:27:49.229Z,4.53
2023-05-19T14:30:17.408Z,3.80
2023-05-19T14:32:45.564Z,5.10
2023-05-19T14:35:13.688Z,4.63
2023-05-19T14:37:41.793Z,6.43
2023-05-19T14:40:12.652Z,5.60
2023-05-19T14:42:40.827Z,3.28
2023-05-19T14:57:38.288Z,6.38
2023-05-19T15:00:10.340Z,5.68
2023-05-19T15:02:38.554Z,5.60
2023-05-19T15:05:07.252Z,5.10
2023-05-19T15:07:35.599Z,3.70
2023-05-19T15:10:04.276Z,2.78
2023-05-19T15:12:32.416Z,3.45
2023-05-19T15:15:00.691Z,3.97
2023-05-19T15:17:30.242Z,3.50
2023-05-19T15:19:58.490Z,4.88
2023-05-19T15:22:27.497Z,3.83
2023-05-19T15:24:55.608Z,2.75
2023-05-19T15:27:24.281Z,3.95
2023-05-19T15:29:52.401Z,4.70
2023-05-19T15:32:20.563Z,5.53
2023-05-19T15:34:50.151Z,4.00
2023-05-19T15:37:18.304Z,3.20
2023-05-19T15:39:46.402Z,4.57
2023-05-19T15:42:14.583Z,4.45
2023-05-19T15:44:42.684Z,4.55
2023-05-19T15:47:10.802Z,3.17
2023-05-19T15:49:38.937Z,2.58
2023-05-19T15:52:08.632Z,4.03
2023-05-19T15:54:36.780Z,4.95
2023-05-19T15:57:05.012Z,4.03
2023-05-19T15:59:33.112Z,4.18
2023-05-19T16:02:01.360Z,6.32
2023-05-19T16:04:29.532Z,3.80
2023-05-19T16:06:57.978Z,5.95
2023-05-19T16:09:27.443Z,3.38
2023-05-19T16:11:55.592Z,3.35
2023-05-19T16:14:24.542Z,5.28
2023-05-19T16:16:52.778Z,4.10
2023-05-19T16:19:21.494Z,2.88
2023-05-19T16:21:49.645Z,2.53
2023-05-19T16:24:17.745Z,2.75
2023-05-19T16:26:48.646Z,3.80
2023-05-19T16:29:16.775Z,3.58
2023-05-19T16:31:44.940Z,3.78
2023-05-19T16:34:13.068Z,4.70
2023-05-19T16:36:41.324Z,6.80
2023-05-19T16:39:09.401Z,5.13
2023-05-19T16:53:39.972Z,1.98
2023-05-19T16:56:48.483Z,5.35
2023-05-19T16:59:17.238Z,3.45
2023-05-19T17:01:45.425Z,3.13
2023-05-19T17:04:13.552Z,4.22
2023-05-19T17:06:41.771Z,4.13
2023-05-19T17:09:11.245Z,2.55
2023-05-19T17:11:39.369Z,3.25
2023-05-19T17:14:09.264Z,4.20
2023-05-19T17:16:38.174Z,4.15
2023-05-19T17:19:06.365Z,4.38
2023-05-19T17:21:34.468Z,4.15
2023-05-19T17:24:02.622Z,3.20
2023-05-19T17:26:32.118Z,5.00
2023-05-19T17:29:00.325Z,4.05
2023-05-19T17:31:28.452Z,2.78
2023-05-19T17:33:56.584Z,5.00
2023-05-19T17:36:24.737Z,2.22
2023-05-19T17:38:52.910Z,3.92
2023-05-19T17:41:21.919Z,2.38
2023-05-19T17:43:51.418Z,5.18
2023-05-19T17:46:19.548Z,3.53
2023-05-19T17:48:47.719Z,3.47
2023-05-19T17:51:15.991Z,2.75
2023-05-19T17:53:44.606Z,5.68
2023-05-19T17:56:13.679Z,3.85
2023-05-19T17:58:42.265Z,6.15
2023-05-19T18:01:12.336Z,4.00
2023-05-19T18:03:41.461Z,2.60
2023-05-19T18:06:09.956Z,2.75
2023-05-19T18:08:39.655Z,3.58
2023-05-19T18:11:08.491Z,6.50
2023-05-19T18:13:37.599Z,2.67
2023-05-19T18:16:06.028Z,3.33
2023-05-19T18:18:37.358Z,4.05
2023-05-19T18:21:05.972Z,3.80
2023-05-19T18:23:34.137Z,4.25
2023-05-19T18:26:02.295Z,3.60
2023-05-19T18:28:30.666Z,4.63
2023-05-19T18:31:02.148Z,3.63
2023-05-19T18:33:31.238Z,3.10
2023-05-19T18:36:00.944Z,2.75
2023-05-19T18:38:29.072Z,2.42
2023-05-19T18:40:57.922Z,2.85
2023-05-19T18:43:26.176Z,2.67
2023-05-19T18:45:54.418Z,1.83
2023-05-19T18:48:22.763Z,2.63
2023-05-19T18:50:50.938Z,2.20
2023-05-19T18:53:22.095Z,2.90
2023-05-19T18:55:50.213Z,3.35
2023-05-19T18:58:19.107Z,5.05
2023-05-19T19:00:47.348Z,2.97
2023-05-19T19:03:15.971Z,3.33
2023-05-19T19:05:45.286Z,6.95
2023-05-19T19:08:13.535Z,2.10
2023-05-19T19:10:44.347Z,2.00
2023-05-19T19:13:12.451Z,3.95
2023-05-19T19:15:40.782Z,4.07
2023-05-19T19:18:08.978Z,2.17
2023-05-19T19:20:37.122Z,3.28
2023-05-19T19:23:06.788Z,4.17
2023-05-19T19:25:35.188Z,1.83
2023-05-19T19:28:04.759Z,4.27
2023-05-19T19:30:33.162Z,3.43
2023-05-19T19:33:01.511Z,3.27
2023-05-19T19:35:29.709Z,3.40
2023-05-19T19:37:58.487Z,3.23
2023-05-19T19:40:26.659Z,3.63
2023-05-19T19:42:54.771Z,3.73
2023-05-19T19:45:24.305Z,3.70
2023-05-19T19:47:52.841Z,3.50
2023-05-19T19:50:21.308Z,4.00
2023-05-19T19:52:49.457Z,5.07
2023-05-19T19:55:17.684Z,3.67
2023-05-19T19:57:49.351Z,4.33
2023-05-19T20:00:18.596Z,3.47
2023-05-19T20:06:28.588Z,3.70
2023-05-19T20:08:56.655Z,4.07
2023-05-19T20:11:26.634Z,2.33
2023-05-19T20:13:54.891Z,1.87
2023-05-19T20:16:24.208Z,4.40
2023-05-19T20:18:52.444Z,4.30
2023-05-19T20:21:20.725Z,4.20
2023-05-19T20:23:51.102Z,4.27
2023-05-19T20:26:19.305Z,3.10
2023-05-19T20:28:47.474Z,2.93
2023-05-19T20:31:15.590Z,3.60
2023-05-19T20:33:43.714Z,4.13
2023-05-19T20:36:12.040Z,3.30
2023-05-19T20:38:40.517Z,2.27
2023-05-19T20:41:10.029Z,5.30
2023-05-19T20:43:38.213Z,2.50
2023-05-19T20:46:06.665Z,3.00
2023-05-19T20:48:34.848Z,1.77
2023-05-19T20:51:03.005Z,2.93
2023-05-19T20:53:31.140Z,3.37
2023-05-19T20:55:59.253Z,3.63
2023-05-19T20:58:30.322Z,3.73
2023-05-19T21:00:58.599Z,2.97
2023-05-19T21:03:27.407Z,4.03
2023-05-19T21:05:55.823Z,3.40
2023-05-19T21:08:24.383Z,3.97
2023-05-19T21:10:52.692Z,1.70
2023-05-19T21:13:21.195Z,3.40
2023-05-19T21:15:50.687Z,3.50
2023-05-19T21:18:18.796Z,3.33
2023-05-19T21:20:46.929Z,2.57
2023-05-19T21:23:15.017Z,2.70
2023-05-19T21:25:45.183Z,2.50
2023-05-19T21:28:13.599Z,2.50
2023-05-19T21:30:41.801Z,3.70
2023-05-19T21:33:11.616Z,1.60
2023-05-19T21:35:39.762Z,5.33
2023-05-19T21:38:19.609Z,4.47
2023-05-19T21:40:51.359Z,6.37
2023-05-19T21:43:19.582Z,1.67
2023-05-19T21:45:47.798Z,2.90
2023-05-19T21:48:17.318Z,2.30
2023-05-19T21:50:45.674Z,2.50
2023-05-19T21:53:13.760Z,3.37
2023-05-19T21:55:41.861Z,1.87
2023-05-19T21:58:10.027Z,3.37
2023-05-19T22:00:38.281Z,4.03
2023-05-19T22:03:06.715Z,2.07
2023-05-19T22:17:38.942Z,5.70
2023-05-19T22:20:08.279Z,4.87
2023-05-19T22:22:36.826Z,5.97
2023-05-19T22:25:05.503Z,5.97
2023-05-19T22:27:33.668Z,7.90
2023-05-19T22:30:01.752Z,4.83
2023-05-19T22:32:30.445Z,4.13
2023-05-19T22:34:59.928Z,13.20
2023-05-19T22:37:28.947Z,4.70
2023-05-19T22:39:57.077Z,3.00
2023-05-19T22:42:25.257Z,6.57
2023-05-19T22:44:53.443Z,5.23
2023-05-19T22:47:21.700Z,4.80
2023-05-19T22:49:51.130Z,8.87
2023-05-19T22:52:20.647Z,7.90
2023-05-19T22:54:48.814Z,4.93
2023-05-19T22:57:17.572Z,6.63
2023-05-19T22:59:45.830Z,5.87
2023-05-19T23:02:14.772Z,4.77
2023-05-19T23:04:42.872Z,7.90
2023-05-19T23:07:10.974Z,4.30
2023-05-19T23:09:40.529Z,6.80
2023-05-19T23:12:08.620Z,6.87
2023-05-19T23:14:36.734Z,9.30
2023-05-19T23:17:05.007Z,4.90
2023-05-19T23:19:34.986Z,3.70
2023-05-19T23:22:03.081Z,4.63
2023-05-19T23:24:31.304Z,12.23
2023-05-19T23:27:01.004Z,7.60
2023-05-19T23:29:29.157Z,4.37
2023-05-19T23:31:57.313Z,6.57
2023-05-19T23:34:25.534Z,4.77
2023-05-19T23:36:53.638Z,8.23
2023-05-19T23:39:25.086Z,7.23
2023-05-19T23:41:53.160Z,5.97
2023-05-19T23:44:22.649Z,5.30
2023-05-19T23:46:51.359Z,5.63
2023-05-19T23:49:19.768Z,3.97
2023-05-19T23:51:47.877Z,7.83
2023-05-19T23:54:15.948Z,4.87
2023-05-19T23:56:44.102Z,5.20
2023-05-19T23:59:12.312Z,4.40
